sensor_id;sensor_type;location;lat;lon;timestamp;temperature;humidity
48768;DHT22;34933;40.968;14.538;2022-12-18T00:02:15;9.40;99.90
48768;DHT22;34933;40.968;14.538;2022-12-18T00:05:00;9.30;99.90
48768;DHT22;34933;40.968;14.538;2022-12-18T00:07:45;9.20;99.90
48768;DHT22;34933;40.968;14.538;2022-12-18T00:10:29;9.10;99.90
48768;DHT22;34933;40.968;14.538;2022-12-18T00:13:14;9.10;99.90
48768;DHT22;34933;40.968;14.538;2022-12-18T00:16:17;9.00;99.90
48768;DHT22;34933;40.968;14.538;2022-12-18T00:19:05;9.10;99.90
48768;DHT22;34933;40.968;14.538;2022-12-18T00:21:50;9.10;99.90
48768;DHT22;34933;40.968;14.538;2022-12-18T00:24:34;9.10;99.90
48768;DHT22;34933;40.968;14.538;2022-12-18T00:27:19;9.10;99.90
48768;DHT22;34933;40.968;14.538;2022-12-18T00:30:04;9.00;99.90
48768;DHT22;34933;40.968;14.538;2022-12-18T00:32:48;8.90;99.90
48768;DHT22;34933;40.968;14.538;2022-12-18T00:35:33;8.90;99.90
48768;DHT22;34933;40.968;14.538;2022-12-18T00:38:18;8.90;99.90
48768;DHT22;34933;40.968;14.538;2022-12-18T00:41:03;8.80;99.90
48768;DHT22;34933;40.968;14.538;2022-12-18T00:43:47;8.80;99.90
48768;DHT22;34933;40.968;14.538;2022-12-18T00:46:32;8.70;99.90
48768;DHT22;34933;40.968;14.538;2022-12-18T00:49:18;8.70;99.90
48768;DHT22;34933;40.968;14.538;2022-12-18T00:52:03;8.70;99.90
48768;DHT22;34933;40.968;14.538;2022-12-18T00:54:48;8.70;99.90
48768;DHT22;34933;40.968;14.538;2022-12-18T00:57:32;8.60;99.90
48768;DHT22;34933;40.968;14.538;2022-12-18T01:00:17;8.60;99.90
48768;DHT22;34933;40.968;14.538;2022-12-18T01:03:02;8.50;99.90
48768;DHT22;34933;40.968;14.538;2022-12-18T01:05:47;8.50;99.90
48768;DHT22;34933;40.968;14.538;2022-12-18T01:08:31;8.50;99.90
48768;DHT22;34933;40.968;14.538;2022-12-18T01:11:19;8.40;99.90
48768;DHT22;34933;40.968;14.538;2022-12-18T01:14:03;8.50;99.90
48768;DHT22;34933;40.968;14.538;2022-12-18T01:16:48;8.40;99.90
48768;DHT22;34933;40.968;14.538;2022-12-18T01:19:33;8.40;99.90
48768;DHT22;34933;40.968;14.538;2022-12-18T01:22:17;8.40;99.90
48768;DHT22;34933;40.968;14.538;2022-12-18T01:25:04;8.40;99.90
48768;DHT22;34933;40.968;14.538;2022-12-18T01:27:49;8.40;99.90
48768;DHT22;34933;40.968;14.538;2022-12-18T01:30:34;8.40;99.90
48768;DHT22;34933;40.968;14.538;2022-12-18T01:33:19;8.40;99.90
48768;DHT22;34933;40.968;14.538;2022-12-18T01:36:04;8.40;99.90
48768;DHT22;34933;40.968;14.538;2022-12-18T01:38:49;8.40;99.90
48768;DHT22;34933;40.968;14.538;2022-12-18T01:41:35;8.40;99.90
48768;DHT22;34933;40.968;14.538;2022-12-18T01:47:36;8.30;99.90
48768;DHT22;34933;40.968;14.538;2022-12-18T01:50:37;8.30;99.90
48768;DHT22;34933;40.968;14.538;2022-12-18T01:53:23;8.20;99.90
48768;DHT22;34933;40.968;14.538;2022-12-18T01:56:08;8.20;99.90
48768;DHT22;34933;40.968;14.538;2022-12-18T01:59:09;8.30;99.90
48768;DHT22;34933;40.968;14.538;2022-12-18T02:01:54;8.30;99.90
48768;DHT22;34933;40.968;14.538;2022-12-18T02:04:39;8.30;99.90
48768;DHT22;34933;40.968;14.538;2022-12-18T02:19:28;8.10;99.90
48768;DHT22;34933;40.968;14.538;2022-12-18T02:28:21;8.10;99.90
48768;DHT22;34933;40.968;14.538;2022-12-18T02:31:13;8.10;99.90
48768;DHT22;34933;40.968;14.538;2022-12-18T02:34:00;8.10;99.90
48768;DHT22;34933;40.968;14.538;2022-12-18T02:36:46;8.10;99.90
48768;DHT22;34933;40.968;14.538;2022-12-18T02:39:34;8.10;99.90
48768;DHT22;34933;40.968;14.538;2022-12-18T02:42:22;8.20;99.90
48768;DHT22;34933;40.968;14.538;2022-12-18T02:45:07;8.20;99.90
48768;DHT22;34933;40.968;14.538;2022-12-18T02:47:53;8.20;99.90
48768;DHT22;34933;40.968;14.538;2022-12-18T02:50:45;8.20;99.90
48768;DHT22;34933;40.968;14.538;2022-12-18T02:53:43;8.40;99.90
48768;DHT22;34933;40.968;14.538;2022-12-18T02:56:35;8.30;99.90
48768;DHT22;34933;40.968;14.538;2022-12-18T02:59:58;8.40;99.90
48768;DHT22;34933;40.968;14.538;2022-12-18T03:02:57;8.40;99.90
48768;DHT22;34933;40.968;14.538;2022-12-18T03:05:50;8.40;99.90
48768;DHT22;34933;40.968;14.538;2022-12-18T03:08:45;8.30;99.90
48768;DHT22;34933;40.968;14.538;2022-12-18T03:11:34;8.20;99.90
48768;DHT22;34933;40.968;14.538;2022-12-18T03:14:41;8.10;99.90
48768;DHT22;34933;40.968;14.538;2022-12-18T03:17:30;8.10;99.90
48768;DHT22;34933;40.968;14.538;2022-12-18T03:20:20;8.00;99.90
48768;DHT22;34933;40.968;14.538;2022-12-18T03:23:19;8.00;99.90
48768;DHT22;34933;40.968;14.538;2022-12-18T03:26:12;7.90;99.90
48768;DHT22;34933;40.968;14.538;2022-12-18T03:29:03;7.90;99.90
48768;DHT22;34933;40.968;14.538;2022-12-18T03:31:57;7.90;99.90
48768;DHT22;34933;40.968;14.538;2022-12-18T03:34:47;7.90;99.90
48768;DHT22;34933;40.968;14.538;2022-12-18T03:37:35;7.80;99.90
48768;DHT22;34933;40.968;14.538;2022-12-18T03:40:23;7.90;99.90
48768;DHT22;34933;40.968;14.538;2022-12-18T03:43:23;7.90;99.90
48768;DHT22;34933;40.968;14.538;2022-12-18T03:55:34;7.80;99.90
48768;DHT22;34933;40.968;14.538;2022-12-18T03:58:24;7.90;99.90
48768;DHT22;34933;40.968;14.538;2022-12-18T04:01:25;7.80;99.90
48768;DHT22;34933;40.968;14.538;2022-12-18T04:04:13;7.80;99.90
48768;DHT22;34933;40.968;14.538;2022-12-18T04:06:59;7.70;99.90
48768;DHT22;34933;40.968;14.538;2022-12-18T04:09:45;7.60;99.90
48768;DHT22;34933;40.968;14.538;2022-12-18T04:12:31;7.50;99.90
48768;DHT22;34933;40.968;14.538;2022-12-18T04:15:16;7.40;99.90
48768;DHT22;34933;40.968;14.538;2022-12-18T04:18:03;7.40;99.90
48768;DHT22;34933;40.968;14.538;2022-12-18T04:20:55;7.30;99.90
48768;DHT22;34933;40.968;14.538;2022-12-18T04:23:40;7.30;99.90
48768;DHT22;34933;40.968;14.538;2022-12-18T04:26:25;7.40;99.90
48768;DHT22;34933;40.968;14.538;2022-12-18T04:29:48;7.50;99.90
48768;DHT22;34933;40.968;14.538;2022-12-18T04:32:35;7.40;99.90
48768;DHT22;34933;40.968;14.538;2022-12-18T04:35:20;7.40;99.90
48768;DHT22;34933;40.968;14.538;2022-12-18T04:38:06;7.40;99.90
48768;DHT22;34933;40.968;14.538;2022-12-18T04:40:52;7.40;99.90
48768;DHT22;34933;40.968;14.538;2022-12-18T04:43:43;7.40;99.90
48768;DHT22;34933;40.968;14.538;2022-12-18T04:46:27;7.40;99.90
48768;DHT22;34933;40.968;14.538;2022-12-18T04:49:12;7.40;99.90
48768;DHT22;34933;40.968;14.538;2022-12-18T04:51:57;7.30;99.90
48768;DHT22;34933;40.968;14.538;2022-12-18T04:54:41;7.30;99.90
48768;DHT22;34933;40.968;14.538;2022-12-18T04:57:26;7.40;99.90
48768;DHT22;34933;40.968;14.538;2022-12-18T05:00:11;7.50;99.90
48768;DHT22;34933;40.968;14.538;2022-12-18T05:02:55;7.60;99.90
48768;DHT22;34933;40.968;14.538;2022-12-18T05:05:40;7.50;99.90
48768;DHT22;34933;40.968;14.538;2022-12-18T05:08:25;7.50;99.90
48768;DHT22;34933;40.968;14.538;2022-12-18T05:11:12;7.40;99.90
48768;DHT22;34933;40.968;14.538;2022-12-18T05:13:59;7.40;99.90
48768;DHT22;34933;40.968;14.538;2022-12-18T05:16:44;7.40;99.90
48768;DHT22;34933;40.968;14.538;2022-12-18T05:19:29;7.40;99.90
48768;DHT22;34933;40.968;14.538;2022-12-18T05:22:14;7.30;99.90
48768;DHT22;34933;40.968;14.538;2022-12-18T05:24:58;7.30;99.90
48768;DHT22;34933;40.968;14.538;2022-12-18T05:27:43;7.30;99.90
48768;DHT22;34933;40.968;14.538;2022-12-18T05:30:28;7.30;99.90
48768;DHT22;34933;40.968;14.538;2022-12-18T05:33:12;7.40;99.90
48768;DHT22;34933;40.968;14.538;2022-12-18T05:35:59;7.40;99.90
48768;DHT22;34933;40.968;14.538;2022-12-18T05:38:46;7.50;99.90
48768;DHT22;34933;40.968;14.538;2022-12-18T05:41:30;7.60;99.90
48768;DHT22;34933;40.968;14.538;2022-12-18T05:44:15;7.50;99.90
48768;DHT22;34933;40.968;14.538;2022-12-18T05:46:59;7.40;99.90
48768;DHT22;34933;40.968;14.538;2022-12-18T05:49:44;7.40;99.90
48768;DHT22;34933;40.968;14.538;2022-12-18T05:52:29;7.30;99.90
48768;DHT22;34933;40.968;14.538;2022-12-18T05:55:14;7.40;99.90
48768;DHT22;34933;40.968;14.538;2022-12-18T05:57:59;7.40;99.90
48768;DHT22;34933;40.968;14.538;2022-12-18T06:00:45;7.40;99.90
48768;DHT22;34933;40.968;14.538;2022-12-18T06:03:30;7.50;99.90
48768;DHT22;34933;40.968;14.538;2022-12-18T06:06:17;7.70;99.90
48768;DHT22;34933;40.968;14.538;2022-12-18T06:09:01;7.70;99.90
48768;DHT22;34933;40.968;14.538;2022-12-18T06:11:48;7.70;99.90
48768;DHT22;34933;40.968;14.538;2022-12-18T06:14:32;7.60;99.90
48768;DHT22;34933;40.968;14.538;2022-12-18T06:17:17;7.60;99.90
48768;DHT22;34933;40.968;14.538;2022-12-18T06:20:03;7.60;99.90
48768;DHT22;34933;40.968;14.538;2022-12-18T06:22:48;7.50;99.90
48768;DHT22;34933;40.968;14.538;2022-12-18T06:25:37;7.50;99.90
48768;DHT22;34933;40.968;14.538;2022-12-18T06:28:22;7.70;99.90
48768;DHT22;34933;40.968;14.538;2022-12-18T06:31:07;7.70;99.90
48768;DHT22;34933;40.968;14.538;2022-12-18T06:33:51;7.80;99.90
48768;DHT22;34933;40.968;14.538;2022-12-18T06:36:36;7.70;99.90
48768;DHT22;34933;40.968;14.538;2022-12-18T06:39:20;7.70;99.90
48768;DHT22;34933;40.968;14.538;2022-12-18T06:42:05;7.70;99.90
48768;DHT22;34933;40.968;14.538;2022-12-18T06:44:50;7.60;99.90
48768;DHT22;34933;40.968;14.538;2022-12-18T06:47:34;7.70;99.90
48768;DHT22;34933;40.968;14.538;2022-12-18T06:50:19;7.70;99.90
48768;DHT22;34933;40.968;14.538;2022-12-18T06:53:03;7.80;99.90
48768;DHT22;34933;40.968;14.538;2022-12-18T06:55:48;7.80;99.90
48768;DHT22;34933;40.968;14.538;2022-12-18T06:58:33;7.90;99.90
48768;DHT22;34933;40.968;14.538;2022-12-18T07:01:17;7.80;99.90
48768;DHT22;34933;40.968;14.538;2022-12-18T07:04:02;7.80;99.90
48768;DHT22;34933;40.968;14.538;2022-12-18T07:06:46;7.90;99.90
48768;DHT22;34933;40.968;14.538;2022-12-18T07:09:31;8.00;99.90
48768;DHT22;34933;40.968;14.538;2022-12-18T07:12:15;8.00;99.90
48768;DHT22;34933;40.968;14.538;2022-12-18T07:15:01;8.00;99.90
48768;DHT22;34933;40.968;14.538;2022-12-18T07:17:45;8.20;99.90
48768;DHT22;34933;40.968;14.538;2022-12-18T07:20:30;8.30;99.90
48768;DHT22;34933;40.968;14.538;2022-12-18T07:23:14;8.40;99.90
48768;DHT22;34933;40.968;14.538;2022-12-18T07:26:19;8.50;99.90
48768;DHT22;34933;40.968;14.538;2022-12-18T07:29:04;8.70;99.90
48768;DHT22;34933;40.968;14.538;2022-12-18T07:31:48;8.90;99.90
48768;DHT22;34933;40.968;14.538;2022-12-18T07:34:33;9.00;99.90
48768;DHT22;34933;40.968;14.538;2022-12-18T07:37:17;9.10;99.90
48768;DHT22;34933;40.968;14.538;2022-12-18T07:40:02;9.20;99.90
48768;DHT22;34933;40.968;14.538;2022-12-18T07:42:47;9.20;99.90
48768;DHT22;34933;40.968;14.538;2022-12-18T07:45:31;9.30;99.90
48768;DHT22;34933;40.968;14.538;2022-12-18T07:48:16;9.40;99.90
48768;DHT22;34933;40.968;14.538;2022-12-18T07:51:02;9.50;99.90
48768;DHT22;34933;40.968;14.538;2022-12-18T07:53:48;9.60;99.90
48768;DHT22;34933;40.968;14.538;2022-12-18T07:56:32;9.80;99.90
48768;DHT22;34933;40.968;14.538;2022-12-18T07:59:17;10.00;99.90
48768;DHT22;34933;40.968;14.538;2022-12-18T08:02:02;10.20;99.90
48768;DHT22;34933;40.968;14.538;2022-12-18T08:04:47;10.20;99.90
48768;DHT22;34933;40.968;14.538;2022-12-18T08:07:32;10.40;99.90
48768;DHT22;34933;40.968;14.538;2022-12-18T08:10:17;10.50;99.90
48768;DHT22;34933;40.968;14.538;2022-12-18T08:13:01;10.60;99.90
48768;DHT22;34933;40.968;14.538;2022-12-18T08:15:46;10.90;99.90
48768;DHT22;34933;40.968;14.538;2022-12-18T08:18:35;11.10;99.90
48768;DHT22;34933;40.968;14.538;2022-12-18T08:21:22;11.30;99.90
48768;DHT22;34933;40.968;14.538;2022-12-18T08:24:09;11.50;99.90
48768;DHT22;34933;40.968;14.538;2022-12-18T08:26:54;11.60;99.90
48768;DHT22;34933;40.968;14.538;2022-12-18T08:29:41;11.80;99.90
48768;DHT22;34933;40.968;14.538;2022-12-18T08:32:27;11.90;99.90
48768;DHT22;34933;40.968;14.538;2022-12-18T08:35:12;12.00;99.90
48768;DHT22;34933;40.968;14.538;2022-12-18T08:37:56;12.10;99.90
48768;DHT22;34933;40.968;14.538;2022-12-18T08:40:41;12.30;99.90
48768;DHT22;34933;40.968;14.538;2022-12-18T08:43:25;12.30;99.90
48768;DHT22;34933;40.968;14.538;2022-12-18T08:46:35;12.40;99.90
48768;DHT22;34933;40.968;14.538;2022-12-18T08:49:19;12.50;99.90
48768;DHT22;34933;40.968;14.538;2022-12-18T08:52:04;12.70;99.90
48768;DHT22;34933;40.968;14.538;2022-12-18T08:54:48;12.90;99.90
48768;DHT22;34933;40.968;14.538;2022-12-18T08:57:33;13.30;99.90
48768;DHT22;34933;40.968;14.538;2022-12-18T09:00:17;13.90;99.90
48768;DHT22;34933;40.968;14.538;2022-12-18T09:03:03;14.30;99.90
48768;DHT22;34933;40.968;14.538;2022-12-18T09:05:47;14.50;99.90
48768;DHT22;34933;40.968;14.538;2022-12-18T09:08:32;14.60;99.90
48768;DHT22;34933;40.968;14.538;2022-12-18T09:11:26;14.70;99.90
48768;DHT22;34933;40.968;14.538;2022-12-18T09:14:10;14.70;99.90
48768;DHT22;34933;40.968;14.538;2022-12-18T09:16:54;14.80;99.90
48768;DHT22;34933;40.968;14.538;2022-12-18T09:19:39;14.90;99.90
48768;DHT22;34933;40.968;14.538;2022-12-18T09:22:23;15.10;99.90
48768;DHT22;34933;40.968;14.538;2022-12-18T09:25:08;15.10;99.90
48768;DHT22;34933;40.968;14.538;2022-12-18T09:27:52;15.20;99.90
48768;DHT22;34933;40.968;14.538;2022-12-18T09:30:42;15.30;99.90
48768;DHT22;34933;40.968;14.538;2022-12-18T09:33:26;15.30;99.90
48768;DHT22;34933;40.968;14.538;2022-12-18T09:36:14;15.30;99.90
48768;DHT22;34933;40.968;14.538;2022-12-18T09:38:59;15.40;99.90
48768;DHT22;34933;40.968;14.538;2022-12-18T09:41:44;15.50;99.90
48768;DHT22;34933;40.968;14.538;2022-12-18T09:44:34;15.50;99.90
48768;DHT22;34933;40.968;14.538;2022-12-18T09:47:25;15.50;99.90
48768;DHT22;34933;40.968;14.538;2022-12-18T09:50:33;15.50;99.90
48768;DHT22;34933;40.968;14.538;2022-12-18T09:53:24;15.50;99.90
48768;DHT22;34933;40.968;14.538;2022-12-18T09:56:16;15.70;99.90
48768;DHT22;34933;40.968;14.538;2022-12-18T09:59:02;15.70;99.90
48768;DHT22;34933;40.968;14.538;2022-12-18T10:01:47;15.60;99.90
48768;DHT22;34933;40.968;14.538;2022-12-18T10:04:32;15.70;99.90
48768;DHT22;34933;40.968;14.538;2022-12-18T10:07:29;15.70;99.90
48768;DHT22;34933;40.968;14.538;2022-12-18T10:10:42;15.70;99.90
48768;DHT22;34933;40.968;14.538;2022-12-18T10:13:51;15.80;99.90
48768;DHT22;34933;40.968;14.538;2022-12-18T10:20:17;15.80;99.90
48768;DHT22;34933;40.968;14.538;2022-12-18T10:26:08;15.80;99.90
48768;DHT22;34933;40.968;14.538;2022-12-18T10:28:53;15.90;99.90
48768;DHT22;34933;40.968;14.538;2022-12-18T10:31:38;15.80;99.90
48768;DHT22;34933;40.968;14.538;2022-12-18T10:34:23;15.90;99.90
48768;DHT22;34933;40.968;14.538;2022-12-18T10:37:18;16.00;99.90
48768;DHT22;34933;40.968;14.538;2022-12-18T10:40:15;16.00;99.90
48768;DHT22;34933;40.968;14.538;2022-12-18T10:46:13;16.10;99.90
48768;DHT22;34933;40.968;14.538;2022-12-18T10:49:01;16.10;99.90
48768;DHT22;34933;40.968;14.538;2022-12-18T10:51:45;16.20;99.90
48768;DHT22;34933;40.968;14.538;2022-12-18T10:54:31;16.10;99.90
48768;DHT22;34933;40.968;14.538;2022-12-18T11:00:25;16.10;99.90
48768;DHT22;34933;40.968;14.538;2022-12-18T11:03:33;16.20;99.90
48768;DHT22;34933;40.968;14.538;2022-12-18T11:06:22;16.20;99.90
48768;DHT22;34933;40.968;14.538;2022-12-18T11:09:35;16.30;99.90
48768;DHT22;34933;40.968;14.538;2022-12-18T11:12:22;16.20;99.90
48768;DHT22;34933;40.968;14.538;2022-12-18T11:15:36;16.20;99.90
48768;DHT22;34933;40.968;14.538;2022-12-18T11:21:12;16.20;99.90
48768;DHT22;34933;40.968;14.538;2022-12-18T11:23:58;16.30;99.90
48768;DHT22;34933;40.968;14.538;2022-12-18T11:26:42;16.20;99.90
48768;DHT22;34933;40.968;14.538;2022-12-18T11:29:38;16.20;99.90
48768;DHT22;34933;40.968;14.538;2022-12-18T11:32:31;16.20;99.90
48768;DHT22;34933;40.968;14.538;2022-12-18T11:38:35;16.20;99.90
48768;DHT22;34933;40.968;14.538;2022-12-18T11:41:29;16.30;99.90
48768;DHT22;34933;40.968;14.538;2022-12-18T11:44:57;16.40;99.90
48768;DHT22;34933;40.968;14.538;2022-12-18T11:48:02;16.50;99.90
48768;DHT22;34933;40.968;14.538;2022-12-18T11:50:49;16.60;99.90
48768;DHT22;34933;40.968;14.538;2022-12-18T11:53:35;16.60;99.90
48768;DHT22;34933;40.968;14.538;2022-12-18T11:56:45;16.50;99.90
48768;DHT22;34933;40.968;14.538;2022-12-18T12:02:42;16.50;99.90
48768;DHT22;34933;40.968;14.538;2022-12-18T12:14:43;16.70;99.90
48768;DHT22;34933;40.968;14.538;2022-12-18T12:18:05;16.70;99.90
48768;DHT22;34933;40.968;14.538;2022-12-18T12:20:56;16.80;99.90
48768;DHT22;34933;40.968;14.538;2022-12-18T12:23:57;16.70;99.90
48768;DHT22;34933;40.968;14.538;2022-12-18T12:39:01;17.40;99.90
48768;DHT22;34933;40.968;14.538;2022-12-18T12:41:48;17.70;99.90
48768;DHT22;34933;40.968;14.538;2022-12-18T12:44:56;17.80;99.90
48768;DHT22;34933;40.968;14.538;2022-12-18T12:47:44;17.60;99.90
48768;DHT22;34933;40.968;14.538;2022-12-18T12:50:33;17.60;99.90
48768;DHT22;34933;40.968;14.538;2022-12-18T12:53:35;17.80;99.90
48768;DHT22;34933;40.968;14.538;2022-12-18T12:56:26;17.90;99.90
48768;DHT22;34933;40.968;14.538;2022-12-18T12:59:23;18.10;99.90
48768;DHT22;34933;40.968;14.538;2022-12-18T13:02:21;18.00;99.90
48768;DHT22;34933;40.968;14.538;2022-12-18T13:05:38;17.80;99.90
48768;DHT22;34933;40.968;14.538;2022-12-18T13:08:27;17.90;99.90
48768;DHT22;34933;40.968;14.538;2022-12-18T13:11:38;18.00;99.90
48768;DHT22;34933;40.968;14.538;2022-12-18T13:14:41;18.00;99.90
48768;DHT22;34933;40.968;14.538;2022-12-18T13:17:27;18.00;99.90
48768;DHT22;34933;40.968;14.538;2022-12-18T13:20:15;17.90;99.90
48768;DHT22;34933;40.968;14.538;2022-12-18T13:23:00;17.90;99.90
48768;DHT22;34933;40.968;14.538;2022-12-18T13:25:45;18.10;99.90
48768;DHT22;34933;40.968;14.538;2022-12-18T13:32:15;18.40;99.90
48768;DHT22;34933;40.968;14.538;2022-12-18T13:34:37;18.40;99.90
48768;DHT22;34933;40.968;14.538;2022-12-18T13:46:44;17.90;99.90
48768;DHT22;34933;40.968;14.538;2022-12-18T13:49:46;17.90;99.90
48768;DHT22;34933;40.968;14.538;2022-12-18T13:52:35;18.10;99.90
48768;DHT22;34933;40.968;14.538;2022-12-18T13:55:20;18.10;99.90
48768;DHT22;34933;40.968;14.538;2022-12-18T13:58:06;18.10;99.90
48768;DHT22;34933;40.968;14.538;2022-12-18T14:00:50;18.30;99.90
48768;DHT22;34933;40.968;14.538;2022-12-18T14:03:35;18.20;99.90
48768;DHT22;34933;40.968;14.538;2022-12-18T14:06:20;18.20;99.90
48768;DHT22;34933;40.968;14.538;2022-12-18T14:09:05;18.40;99.90
48768;DHT22;34933;40.968;14.538;2022-12-18T14:11:50;18.30;99.90
48768;DHT22;34933;40.968;14.538;2022-12-18T14:14:35;18.40;99.90
48768;DHT22;34933;40.968;14.538;2022-12-18T14:17:20;18.50;99.90
48768;DHT22;34933;40.968;14.538;2022-12-18T14:20:15;18.80;99.90
48768;DHT22;34933;40.968;14.538;2022-12-18T14:23:02;18.80;99.90
48768;DHT22;34933;40.968;14.538;2022-12-18T14:25:46;18.70;99.90
48768;DHT22;34933;40.968;14.538;2022-12-18T14:28:31;18.50;99.90
48768;DHT22;34933;40.968;14.538;2022-12-18T14:31:27;18.10;99.90
48768;DHT22;34933;40.968;14.538;2022-12-18T14:34:18;17.90;99.90
48768;DHT22;34933;40.968;14.538;2022-12-18T14:37:03;17.90;99.90
48768;DHT22;34933;40.968;14.538;2022-12-18T14:39:55;17.90;99.90
48768;DHT22;34933;40.968;14.538;2022-12-18T14:42:41;17.50;99.90
48768;DHT22;34933;40.968;14.538;2022-12-18T14:45:36;16.90;99.90
48768;DHT22;34933;40.968;14.538;2022-12-18T14:51:19;16.20;99.90
48768;DHT22;34933;40.968;14.538;2022-12-18T14:54:06;16.10;99.90
48768;DHT22;34933;40.968;14.538;2022-12-18T14:57:22;15.90;99.90
48768;DHT22;34933;40.968;14.538;2022-12-18T15:00:15;15.80;99.90
48768;DHT22;34933;40.968;14.538;2022-12-18T15:03:00;15.60;99.90
48768;DHT22;34933;40.968;14.538;2022-12-18T15:05:45;15.50;99.90
48768;DHT22;34933;40.968;14.538;2022-12-18T15:08:36;15.40;99.90
48768;DHT22;34933;40.968;14.538;2022-12-18T15:11:45;15.20;99.90
48768;DHT22;34933;40.968;14.538;2022-12-18T15:17:22;14.90;99.90
48768;DHT22;34933;40.968;14.538;2022-12-18T15:20:09;14.90;99.90
48768;DHT22;34933;40.968;14.538;2022-12-18T15:22:56;14.80;99.90
48768;DHT22;34933;40.968;14.538;2022-12-18T15:25:40;14.80;99.90
48768;DHT22;34933;40.968;14.538;2022-12-18T15:28:33;14.70;99.90
48768;DHT22;34933;40.968;14.538;2022-12-18T15:31:31;14.60;99.90
48768;DHT22;34933;40.968;14.538;2022-12-18T15:34:21;14.50;99.90
48768;DHT22;34933;40.968;14.538;2022-12-18T15:37:07;14.40;99.90
48768;DHT22;34933;40.968;14.538;2022-12-18T15:39:51;14.40;99.90
48768;DHT22;34933;40.968;14.538;2022-12-18T15:42:36;14.30;99.90
48768;DHT22;34933;40.968;14.538;2022-12-18T15:45:39;14.30;99.90
48768;DHT22;34933;40.968;14.538;2022-12-18T15:48:24;14.10;99.90
48768;DHT22;34933;40.968;14.538;2022-12-18T15:51:18;14.10;99.90
48768;DHT22;34933;40.968;14.538;2022-12-18T15:54:08;14.20;99.90
48768;DHT22;34933;40.968;14.538;2022-12-18T15:56:55;14.20;99.90
48768;DHT22;34933;40.968;14.538;2022-12-18T15:59:58;14.10;99.90
48768;DHT22;34933;40.968;14.538;2022-12-18T16:02:42;14.10;99.90
48768;DHT22;34933;40.968;14.538;2022-12-18T16:05:29;14.00;99.90
48768;DHT22;34933;40.968;14.538;2022-12-18T16:08:14;14.00;99.90
48768;DHT22;34933;40.968;14.538;2022-12-18T16:10:59;14.00;99.90
48768;DHT22;34933;40.968;14.538;2022-12-18T16:13:44;14.00;99.90
48768;DHT22;34933;40.968;14.538;2022-12-18T16:16:29;13.90;99.90
48768;DHT22;34933;40.968;14.538;2022-12-18T16:19:13;13.90;99.90
48768;DHT22;34933;40.968;14.538;2022-12-18T16:21:59;13.90;99.90
48768;DHT22;34933;40.968;14.538;2022-12-18T16:24:49;13.80;99.90
48768;DHT22;34933;40.968;14.538;2022-12-18T16:27:34;13.70;99.90
48768;DHT22;34933;40.968;14.538;2022-12-18T16:30:22;13.70;99.90
48768;DHT22;34933;40.968;14.538;2022-12-18T16:33:09;13.70;99.90
48768;DHT22;34933;40.968;14.538;2022-12-18T16:35:54;13.70;99.90
48768;DHT22;34933;40.968;14.538;2022-12-18T16:38:38;13.60;99.90
48768;DHT22;34933;40.968;14.538;2022-12-18T16:41:23;13.60;99.90
48768;DHT22;34933;40.968;14.538;2022-12-18T16:44:16;13.60;99.90
48768;DHT22;34933;40.968;14.538;2022-12-18T16:47:01;13.70;99.90
48768;DHT22;34933;40.968;14.538;2022-12-18T16:49:46;13.70;99.90
48768;DHT22;34933;40.968;14.538;2022-12-18T16:52:30;13.70;99.90
48768;DHT22;34933;40.968;14.538;2022-12-18T16:55:15;13.70;99.90
48768;DHT22;34933;40.968;14.538;2022-12-18T16:57:59;13.70;99.90
48768;DHT22;34933;40.968;14.538;2022-12-18T17:00:44;13.60;99.90
48768;DHT22;34933;40.968;14.538;2022-12-18T17:03:28;13.70;99.90
48768;DHT22;34933;40.968;14.538;2022-12-18T17:06:14;13.70;99.90
48768;DHT22;34933;40.968;14.538;2022-12-18T17:09:01;13.60;99.90
48768;DHT22;34933;40.968;14.538;2022-12-18T17:11:46;13.50;99.90
48768;DHT22;34933;40.968;14.538;2022-12-18T17:14:32;13.40;99.90
48768;DHT22;34933;40.968;14.538;2022-12-18T17:17:17;13.40;99.90
48768;DHT22;34933;40.968;14.538;2022-12-18T17:20:02;13.40;99.90
48768;DHT22;34933;40.968;14.538;2022-12-18T17:22:49;13.40;99.90
48768;DHT22;34933;40.968;14.538;2022-12-18T17:25:34;13.40;99.90
48768;DHT22;34933;40.968;14.538;2022-12-18T17:28:18;13.50;99.90
48768;DHT22;34933;40.968;14.538;2022-12-18T17:31:30;13.60;99.90
48768;DHT22;34933;40.968;14.538;2022-12-18T17:34:14;13.50;99.90
48768;DHT22;34933;40.968;14.538;2022-12-18T17:36:59;13.50;99.90
48768;DHT22;34933;40.968;14.538;2022-12-18T17:39:43;13.50;99.90
48768;DHT22;34933;40.968;14.538;2022-12-18T17:42:28;13.50;99.90
48768;DHT22;34933;40.968;14.538;2022-12-18T17:45:12;13.60;99.90
48768;DHT22;34933;40.968;14.538;2022-12-18T17:47:57;13.50;99.90
48768;DHT22;34933;40.968;14.538;2022-12-18T17:50:42;13.50;99.90
48768;DHT22;34933;40.968;14.538;2022-12-18T17:53:27;13.40;99.90
48768;DHT22;34933;40.968;14.538;2022-12-18T17:56:13;13.40;99.90
48768;DHT22;34933;40.968;14.538;2022-12-18T17:58:59;13.30;99.90
48768;DHT22;34933;40.968;14.538;2022-12-18T18:01:44;13.30;99.90
48768;DHT22;34933;40.968;14.538;2022-12-18T18:04:28;13.40;99.90
48768;DHT22;34933;40.968;14.538;2022-12-18T18:07:13;13.40;99.90
48768;DHT22;34933;40.968;14.538;2022-12-18T18:09:57;13.40;99.90
48768;DHT22;34933;40.968;14.538;2022-12-18T18:12:42;13.50;99.90
48768;DHT22;34933;40.968;14.538;2022-12-18T18:15:53;13.50;99.90
48768;DHT22;34933;40.968;14.538;2022-12-18T18:18:39;13.50;99.90
48768;DHT22;34933;40.968;14.538;2022-12-18T18:21:24;13.50;99.90
48768;DHT22;34933;40.968;14.538;2022-12-18T18:24:11;13.40;99.90
48768;DHT22;34933;40.968;14.538;2022-12-18T18:26:56;13.40;99.90
48768;DHT22;34933;40.968;14.538;2022-12-18T18:29:42;13.40;99.90
48768;DHT22;34933;40.968;14.538;2022-12-18T18:32:27;13.40;99.90
48768;DHT22;34933;40.968;14.538;2022-12-18T18:35:11;13.40;99.90
48768;DHT22;34933;40.968;14.538;2022-12-18T18:37:56;13.50;99.90
48768;DHT22;34933;40.968;14.538;2022-12-18T18:40:41;13.50;99.90
48768;DHT22;34933;40.968;14.538;2022-12-18T18:43:25;13.60;99.90
48768;DHT22;34933;40.968;14.538;2022-12-18T18:46:12;13.60;99.90
48768;DHT22;34933;40.968;14.538;2022-12-18T18:48:57;13.40;99.90
48768;DHT22;34933;40.968;14.538;2022-12-18T18:51:42;13.50;99.90
48768;DHT22;34933;40.968;14.538;2022-12-18T18:54:26;13.40;99.90
48768;DHT22;34933;40.968;14.538;2022-12-18T18:57:10;13.40;99.90
48768;DHT22;34933;40.968;14.538;2022-12-18T18:59:55;13.40;99.90
48768;DHT22;34933;40.968;14.538;2022-12-18T19:02:40;13.40;99.90
48768;DHT22;34933;40.968;14.538;2022-12-18T19:05:24;13.40;99.90
48768;DHT22;34933;40.968;14.538;2022-12-18T19:08:09;13.40;99.90